createdAt,value
2018-03-31T00:02:08.918Z,3.57
2018-03-31T00:05:11.042Z,5.27
2018-03-31T00:08:13.151Z,4.00
2018-03-31T00:11:15.270Z,4.43
2018-03-31T00:14:17.390Z,5.50
2018-03-31T00:17:19.509Z,3.10
2018-03-31T00:20:21.608Z,5.13
2018-03-31T00:23:23.709Z,4.33
2018-03-31T00:26:26.187Z,4.63
2018-03-31T00:29:28.288Z,3.37
2018-03-31T00:32:30.397Z,6.67
2018-03-31T00:35:32.489Z,5.17
2018-03-31T00:38:34.596Z,4.00
2018-03-31T00:41:36.768Z,5.73
2018-03-31T00:44:38.866Z,4.97
2018-03-31T00:47:40.961Z,3.93
2018-03-31T00:50:43.078Z,4.60
2018-03-31T00:53:45.214Z,4.73
2018-03-31T00:56:47.321Z,3.37
2018-03-31T00:59:49.497Z,3.93
2018-03-31T01:02:51.605Z,5.10
2018-03-31T01:05:53.718Z,4.07
2018-03-31T01:08:55.825Z,3.30
2018-03-31T01:11:57.926Z,3.50
2018-03-31T01:15:00.047Z,3.70
2018-03-31T01:18:02.198Z,3.77
2018-03-31T01:21:04.334Z,4.23
2018-03-31T01:24:06.421Z,4.03
2018-03-31T01:27:08.547Z,3.43
2018-03-31T01:30:10.661Z,4.03
2018-03-31T01:33:12.765Z,3.60
2018-03-31T01:36:14.902Z,4.23
2018-03-31T01:39:16.997Z,4.70
2018-03-31T01:42:19.115Z,4.83
2018-03-31T01:45:21.197Z,4.00
2018-03-31T01:48:23.293Z,4.33
2018-03-31T01:51:25.396Z,4.73
2018-03-31T01:54:27.494Z,3.80
2018-03-31T01:57:29.626Z,3.97
2018-03-31T02:00:31.827Z,4.63
2018-03-31T02:03:33.955Z,6.03
2018-03-31T02:06:36.049Z,4.47
2018-03-31T02:09:38.253Z,6.03
2018-03-31T02:12:40.374Z,5.70
2018-03-31T02:15:42.552Z,5.47
2018-03-31T02:18:44.658Z,6.20
2018-03-31T02:21:46.793Z,7.07
2018-03-31T02:24:48.901Z,6.07
2018-03-31T02:27:51.000Z,6.20
2018-03-31T02:30:53.146Z,5.00
2018-03-31T02:33:55.281Z,6.30
2018-03-31T02:36:57.406Z,6.07
2018-03-31T02:39:59.905Z,7.67
2018-03-31T02:43:02.026Z,5.00
2018-03-31T02:46:04.141Z,6.10
2018-03-31T02:49:06.262Z,6.23
2018-03-31T02:52:08.406Z,5.77
2018-03-31T02:55:10.525Z,5.00
2018-03-31T02:58:12.643Z,6.40
2018-03-31T03:01:14.771Z,5.40
2018-03-31T03:04:16.894Z,5.13
2018-03-31T03:07:19.007Z,4.87
2018-03-31T03:10:21.123Z,6.70
2018-03-31T03:13:23.226Z,5.63
2018-03-31T03:16:25.353Z,6.57
2018-03-31T03:19:27.515Z,5.40
2018-03-31T03:22:29.628Z,5.40
2018-03-31T03:25:31.724Z,5.23
2018-03-31T03:28:33.842Z,4.90
2018-03-31T03:31:35.954Z,4.87
2018-03-31T03:34:38.089Z,6.17
2018-03-31T03:37:40.229Z,6.47
2018-03-31T03:40:42.431Z,7.03
2018-03-31T03:43:44.566Z,6.10
2018-03-31T03:46:46.711Z,6.43
2018-03-31T03:49:48.837Z,7.47
2018-03-31T03:52:51.090Z,5.67
2018-03-31T03:55:53.287Z,8.57
2018-03-31T03:58:55.392Z,6.07
2018-03-31T04:01:57.530Z,6.97
2018-03-31T04:04:59.665Z,6.10
2018-03-31T04:08:02.084Z,5.60
2018-03-31T04:11:04.214Z,6.63
2018-03-31T04:14:06.343Z,6.30
2018-03-31T04:17:08.484Z,6.67
2018-03-31T04:20:10.681Z,6.13
2018-03-31T04:23:12.814Z,6.00
2018-03-31T04:26:15.012Z,6.57
2018-03-31T04:29:17.152Z,7.70
2018-03-31T04:32:19.270Z,8.07
2018-03-31T04:35:21.366Z,8.23
2018-03-31T04:38:23.493Z,7.33
2018-03-31T04:41:25.605Z,7.33
2018-03-31T04:44:27.737Z,6.10
2018-03-31T04:47:29.883Z,9.13
2018-03-31T04:50:32.003Z,7.80
2018-03-31T04:53:34.414Z,7.53
2018-03-31T04:56:36.600Z,10.33
2018-03-31T04:59:38.744Z,8.93
2018-03-31T05:02:40.869Z,6.80
2018-03-31T05:05:43.032Z,6.60
2018-03-31T05:08:45.153Z,7.30
2018-03-31T05:11:47.289Z,8.67
2018-03-31T05:14:49.439Z,6.87
2018-03-31T05:17:51.539Z,6.80
2018-03-31T05:20:53.662Z,7.60
2018-03-31T05:23:55.778Z,6.93
2018-03-31T05:26:57.893Z,7.40
2018-03-31T05:30:00.015Z,7.93
2018-03-31T05:33:02.132Z,8.33
2018-03-31T05:36:04.241Z,8.43
2018-03-31T05:39:11.878Z,8.57
2018-03-31T05:42:14.011Z,8.63
2018-03-31T05:45:16.122Z,9.87
2018-03-31T05:48:18.234Z,10.10
2018-03-31T05:51:20.357Z,9.80
2018-03-31T05:54:22.479Z,8.90
2018-03-31T05:57:24.573Z,8.27
2018-03-31T06:00:26.678Z,9.60
2018-03-31T06:03:28.824Z,9.50
2018-03-31T06:06:30.912Z,11.20
2018-03-31T06:09:33.030Z,9.70
2018-03-31T06:12:35.172Z,12.07
2018-03-31T06:15:37.314Z,11.57
2018-03-31T06:18:39.421Z,11.37
2018-03-31T06:21:41.533Z,10.70
2018-03-31T06:24:43.634Z,13.80
2018-03-31T06:27:45.742Z,10.77
2018-03-31T06:30:47.933Z,13.90
2018-03-31T06:33:50.042Z,12.00
2018-03-31T06:36:52.142Z,12.17
2018-03-31T06:39:54.589Z,11.97
2018-03-31T06:42:56.718Z,11.93
2018-03-31T06:45:58.821Z,9.83
2018-03-31T06:49:00.945Z,11.83
2018-03-31T06:52:03.053Z,11.90
2018-03-31T06:55:05.177Z,11.60
2018-03-31T06:58:07.299Z,12.50
2018-03-31T07:01:09.778Z,11.03
2018-03-31T07:04:11.901Z,12.10
2018-03-31T07:07:14.049Z,11.40
2018-03-31T07:10:17.014Z,10.80
2018-03-31T07:13:19.126Z,12.27
2018-03-31T07:16:21.292Z,10.20
2018-03-31T07:19:23.397Z,10.67
2018-03-31T07:22:25.517Z,10.70
2018-03-31T07:25:28.703Z,12.17
2018-03-31T07:28:30.829Z,9.27
2018-03-31T07:31:32.946Z,8.57
2018-03-31T07:34:35.053Z,7.90
2018-03-31T07:37:37.164Z,8.70
2018-03-31T07:40:39.324Z,10.70
2018-03-31T07:43:41.365Z,9.00
2018-03-31T07:46:43.551Z,7.13
2018-03-31T07:49:45.687Z,7.73
2018-03-31T07:52:47.810Z,7.13
2018-03-31T07:55:50.189Z,8.40
2018-03-31T07:58:52.309Z,7.70
2018-03-31T08:01:54.458Z,9.53
2018-03-31T08:04:56.559Z,7.50
2018-03-31T08:07:58.675Z,7.07
2018-03-31T08:11:01.016Z,7.27
2018-03-31T08:14:03.133Z,6.80
2018-03-31T08:17:06.290Z,7.93
2018-03-31T08:20:08.541Z,7.17
2018-03-31T08:23:10.655Z,6.47
2018-03-31T08:26:12.998Z,6.77
2018-03-31T08:29:15.132Z,5.27
2018-03-31T08:32:17.264Z,5.20
2018-03-31T08:35:19.948Z,5.30
2018-03-31T08:38:22.260Z,5.15
2018-03-31T08:41:24.408Z,5.57
2018-03-31T08:44:27.264Z,5.10
2018-03-31T08:47:29.404Z,5.22
2018-03-31T08:50:31.508Z,5.70
2018-03-31T08:53:33.696Z,4.80
2018-03-31T08:56:35.796Z,5.73
2018-03-31T08:59:38.125Z,6.07
2018-03-31T09:02:40.986Z,6.70
2018-03-31T09:05:43.131Z,6.23
2018-03-31T09:08:45.243Z,5.53
2018-03-31T09:11:47.370Z,7.17
2018-03-31T09:14:49.482Z,4.63
2018-03-31T09:17:51.587Z,4.90
2018-03-31T09:20:53.735Z,4.73
2018-03-31T09:23:55.870Z,6.17
2018-03-31T09:26:57.970Z,5.87
2018-03-31T09:30:00.095Z,5.07
2018-03-31T09:33:02.270Z,5.93
2018-03-31T09:36:04.356Z,10.07
2018-03-31T09:39:06.705Z,8.43
2018-03-31T09:42:09.033Z,6.50
2018-03-31T09:45:11.150Z,5.00
2018-03-31T09:48:13.374Z,6.97
2018-03-31T09:51:16.547Z,5.97
2018-03-31T09:54:18.747Z,8.20
2018-03-31T09:57:20.867Z,6.57
2018-03-31T10:00:27.177Z,7.57
2018-03-31T10:03:29.293Z,6.07
2018-03-31T10:06:31.439Z,5.80
2018-03-31T10:09:33.541Z,6.07
2018-03-31T10:12:35.678Z,6.73
2018-03-31T10:15:38.016Z,7.60
2018-03-31T10:18:40.214Z,6.27
2018-03-31T10:21:42.434Z,5.97
2018-03-31T10:24:44.732Z,5.20
2018-03-31T10:27:46.846Z,6.43
2018-03-31T10:30:48.990Z,5.13
2018-03-31T10:33:51.103Z,5.00
2018-03-31T10:36:53.306Z,3.70
2018-03-31T10:39:55.458Z,4.13
2018-03-31T10:42:57.591Z,4.10
2018-03-31T10:45:59.690Z,3.60
2018-03-31T10:49:01.853Z,3.23
2018-03-31T10:52:03.993Z,2.83
2018-03-31T10:55:06.154Z,2.70
2018-03-31T10:58:08.304Z,3.37
2018-03-31T11:01:10.430Z,2.90
2018-03-31T11:04:12.541Z,3.43
2018-03-31T11:07:14.684Z,3.57
2018-03-31T11:10:16.811Z,3.93
2018-03-31T11:13:18.922Z,4.17
2018-03-31T11:16:21.059Z,4.47
2018-03-31T11:19:23.187Z,3.37
2018-03-31T11:22:25.315Z,4.63
2018-03-31T11:25:27.421Z,4.93
2018-03-31T11:28:29.533Z,5.67
2018-03-31T11:31:31.641Z,6.13
2018-03-31T11:34:33.786Z,4.53
2018-03-31T11:37:35.917Z,5.73
2018-03-31T11:40:38.135Z,5.20
2018-03-31T11:43:40.382Z,5.37
2018-03-31T11:46:42.571Z,5.83
2018-03-31T11:49:44.763Z,6.20
2018-03-31T11:52:46.879Z,5.70
2018-03-31T11:55:48.984Z,4.40
2018-03-31T11:58:51.357Z,4.80
2018-03-31T12:01:53.482Z,4.93
2018-03-31T12:04:55.595Z,4.17
2018-03-31T12:07:57.762Z,4.10
2018-03-31T12:10:59.850Z,4.67
2018-03-31T12:14:02.000Z,4.20
2018-03-31T12:17:04.124Z,4.70
2018-03-31T12:20:05.864Z,4.23
2018-03-31T12:23:08.266Z,3.90
2018-03-31T12:26:10.435Z,3.50
2018-03-31T12:29:12.592Z,3.37
2018-03-31T12:32:14.715Z,4.20
2018-03-31T12:35:16.866Z,3.77
2018-03-31T12:38:18.975Z,3.87
2018-03-31T12:41:21.110Z,3.13
2018-03-31T12:44:23.241Z,3.33
2018-03-31T12:47:25.345Z,3.83
2018-03-31T12:50:27.465Z,3.40
2018-03-31T12:53:29.581Z,4.63
2018-03-31T12:56:31.680Z,3.37
2018-03-31T12:59:33.794Z,3.53
2018-03-31T13:02:35.913Z,5.57
2018-03-31T13:05:38.201Z,2.60
2018-03-31T13:08:40.310Z,4.50
2018-03-31T13:11:42.422Z,2.80
2018-03-31T13:14:44.522Z,3.30
2018-03-31T13:17:46.628Z,3.20
2018-03-31T13:20:48.794Z,2.83
2018-03-31T13:23:50.856Z,2.90
2018-03-31T13:26:52.963Z,3.90
2018-03-31T13:29:55.065Z,2.00
2018-03-31T13:32:57.165Z,3.40
2018-03-31T13:35:59.339Z,3.23
2018-03-31T13:39:01.459Z,1.80
2018-03-31T13:42:03.573Z,2.47
2018-03-31T13:45:05.757Z,5.87
2018-03-31T13:48:07.972Z,3.80
2018-03-31T13:51:10.155Z,2.83
2018-03-31T13:54:12.266Z,1.50
2018-03-31T13:57:14.597Z,2.70
2018-03-31T14:00:16.812Z,2.10
2018-03-31T14:03:18.936Z,1.53
2018-03-31T14:06:21.053Z,2.17
2018-03-31T14:09:23.359Z,2.63
2018-03-31T14:12:25.461Z,2.40
2018-03-31T14:15:27.582Z,1.97
2018-03-31T14:18:29.681Z,3.47
2018-03-31T14:21:31.811Z,3.17
2018-03-31T14:24:33.914Z,3.13
2018-03-31T14:27:36.018Z,2.60
2018-03-31T14:30:38.152Z,4.30
2018-03-31T14:33:40.254Z,4.53
2018-03-31T14:36:42.440Z,2.40
2018-03-31T14:39:44.564Z,2.67
2018-03-31T14:42:46.657Z,2.73
2018-03-31T14:45:48.760Z,2.20
2018-03-31T14:48:50.878Z,2.40
2018-03-31T14:51:52.983Z,2.33
2018-03-31T14:54:55.088Z,1.60
2018-03-31T14:57:57.226Z,1.93
2018-03-31T15:00:59.346Z,3.47
2018-03-31T15:04:01.466Z,1.70
2018-03-31T15:07:03.594Z,2.10
2018-03-31T15:10:05.689Z,2.37
2018-03-31T15:13:07.816Z,2.00
2018-03-31T15:16:09.941Z,1.50
2018-03-31T15:19:12.149Z,2.93
2018-03-31T15:22:14.286Z,1.70
2018-03-31T15:25:16.449Z,2.63
2018-03-31T15:28:18.569Z,1.40
2018-03-31T15:31:20.689Z,1.37
2018-03-31T15:34:22.824Z,2.13
2018-03-31T15:37:25.104Z,1.57
2018-03-31T15:40:27.213Z,1.47
2018-03-31T15:43:29.339Z,2.90
2018-03-31T15:46:31.471Z,1.70
2018-03-31T15:49:33.575Z,2.63
2018-03-31T15:52:35.700Z,2.17
2018-03-31T15:55:37.834Z,1.63
2018-03-31T15:58:39.940Z,2.33
2018-03-31T16:01:42.094Z,2.20
2018-03-31T16:04:44.142Z,1.63
2018-03-31T16:07:46.262Z,3.07
2018-03-31T16:10:48.373Z,3.13
2018-03-31T16:13:50.481Z,3.17
2018-03-31T16:16:52.586Z,3.80
2018-03-31T16:19:54.679Z,2.10
2018-03-31T16:22:56.817Z,2.20
2018-03-31T16:25:58.925Z,2.37
2018-03-31T16:29:01.085Z,1.80
2018-03-31T16:32:03.230Z,1.70
2018-03-31T16:35:05.387Z,1.60
2018-03-31T16:38:07.896Z,1.63
2018-03-31T16:41:10.022Z,2.77
2018-03-31T16:44:12.184Z,3.00
2018-03-31T16:47:14.303Z,1.57
2018-03-31T16:50:16.450Z,1.03
2018-03-31T16:53:18.617Z,2.40
2018-03-31T16:56:20.729Z,1.77
2018-03-31T16:59:22.865Z,2.13
2018-03-31T17:02:25.010Z,0.80
2018-03-31T17:05:27.143Z,1.23
2018-03-31T17:08:29.274Z,2.13
2018-03-31T17:11:31.443Z,0.80
2018-03-31T17:14:33.558Z,2.57
2018-03-31T17:17:35.772Z,1.53
2018-03-31T17:20:37.879Z,2.00
2018-03-31T17:23:40.050Z,2.83
2018-03-31T17:26:42.159Z,1.17
2018-03-31T17:29:44.306Z,1.90
2018-03-31T17:32:46.437Z,1.27
2018-03-31T17:35:48.572Z,1.30
2018-03-31T17:38:50.711Z,2.27
2018-03-31T17:41:52.880Z,1.90
2018-03-31T17:44:55.016Z,1.80
2018-03-31T17:47:57.221Z,1.70
2018-03-31T17:50:59.326Z,2.00
2018-03-31T17:54:01.426Z,2.70
2018-03-31T17:57:03.533Z,1.67
2018-03-31T18:00:05.765Z,1.47
2018-03-31T18:03:07.870Z,1.47
2018-03-31T18:06:10.061Z,5.23
2018-03-31T18:09:12.162Z,1.13
2018-03-31T18:12:14.265Z,1.30
2018-03-31T18:15:16.400Z,1.40
2018-03-31T18:18:18.522Z,1.97
2018-03-31T18:21:20.638Z,2.15
2018-03-31T18:24:22.758Z,1.90
2018-03-31T18:27:24.974Z,3.70
2018-03-31T18:30:27.092Z,2.00
2018-03-31T18:33:29.246Z,5.40
2018-03-31T18:36:31.381Z,2.43
2018-03-31T18:39:33.485Z,4.97
2018-03-31T18:42:36.876Z,2.57
2018-03-31T18:45:38.978Z,2.77
2018-03-31T18:48:41.100Z,3.90
2018-03-31T18:51:43.266Z,3.67
2018-03-31T18:54:45.388Z,5.43
2018-03-31T18:57:47.480Z,9.73
2018-03-31T19:00:49.598Z,10.83
2018-03-31T19:03:51.902Z,11.30
2018-03-31T19:06:54.114Z,8.60
2018-03-31T19:09:56.248Z,7.87
2018-03-31T19:12:58.366Z,4.60
2018-03-31T19:16:00.497Z,3.63
2018-03-31T19:19:02.655Z,3.30
2018-03-31T19:22:04.825Z,3.57
2018-03-31T19:25:11.078Z,4.03
2018-03-31T19:28:13.191Z,3.23
2018-03-31T19:31:15.326Z,3.50
2018-03-31T19:34:17.568Z,2.43
2018-03-31T19:37:19.658Z,2.93
2018-03-31T19:40:22.358Z,3.50
2018-03-31T19:43:24.501Z,3.50
2018-03-31T19:46:26.653Z,1.83
2018-03-31T19:49:28.820Z,6.30
2018-03-31T19:52:30.922Z,2.63
2018-03-31T19:55:33.033Z,3.67
2018-03-31T19:58:35.178Z,2.57
2018-03-31T20:01:37.301Z,2.90
2018-03-31T20:04:39.409Z,5.20
2018-03-31T20:07:41.581Z,2.83
2018-03-31T20:10:43.686Z,3.80
2018-03-31T20:13:45.821Z,3.60
2018-03-31T20:16:47.960Z,3.57
2018-03-31T20:19:50.063Z,3.83
2018-03-31T20:22:52.217Z,2.93
2018-03-31T20:25:54.367Z,4.20
2018-03-31T20:28:56.485Z,7.27
2018-03-31T20:31:58.723Z,9.83
2018-03-31T20:35:00.854Z,9.23
2018-03-31T20:38:03.014Z,10.30
2018-03-31T20:41:05.134Z,7.97
2018-03-31T20:44:07.306Z,8.90
2018-03-31T20:47:09.427Z,10.57
2018-03-31T20:50:11.538Z,8.63
2018-03-31T20:53:13.659Z,12.17
2018-03-31T20:56:15.824Z,9.37
2018-03-31T20:59:17.943Z,9.10
2018-03-31T21:02:20.059Z,4.73
2018-03-31T21:05:22.290Z,5.67
2018-03-31T21:08:24.394Z,5.20
2018-03-31T21:11:26.554Z,4.80
2018-03-31T21:14:28.657Z,3.93
2018-03-31T21:17:30.778Z,7.00
2018-03-31T21:20:32.877Z,7.87
2018-03-31T21:23:34.990Z,10.70
2018-03-31T21:26:37.126Z,16.97
2018-03-31T21:29:39.257Z,20.30
2018-03-31T21:32:41.419Z,14.07
2018-03-31T21:35:42.874Z,11.53
2018-03-31T21:38:44.971Z,11.17
2018-03-31T21:41:47.093Z,9.10
2018-03-31T21:44:49.241Z,13.60
2018-03-31T21:47:51.426Z,10.13
2018-03-31T21:50:53.551Z,9.00
2018-03-31T21:53:55.666Z,9.60
2018-03-31T21:56:57.796Z,10.70
2018-03-31T21:59:59.942Z,10.80
2018-03-31T22:03:02.063Z,8.73
2018-03-31T22:06:04.176Z,8.90
2018-03-31T22:09:06.300Z,8.47
2018-03-31T22:12:08.421Z,9.97
2018-03-31T22:16:17.849Z,9.67
2018-03-31T22:19:19.979Z,6.47
2018-03-31T22:22:22.849Z,7.13
2018-03-31T22:25:24.348Z,7.33
2018-03-31T22:28:26.433Z,6.63
2018-03-31T22:31:28.574Z,4.70
2018-03-31T22:34:30.694Z,5.87
2018-03-31T22:37:32.846Z,7.63
2018-03-31T22:40:34.983Z,7.43
2018-03-31T22:43:37.118Z,7.27
2018-03-31T22:46:39.205Z,8.37
2018-03-31T22:49:41.318Z,5.27
2018-03-31T22:52:43.412Z,5.87
2018-03-31T22:55:45.517Z,6.43
2018-03-31T22:58:47.659Z,6.90
2018-03-31T23:01:49.784Z,7.20
2018-03-31T23:04:51.892Z,7.90
2018-03-31T23:07:54.033Z,6.20
2018-03-31T23:10:56.159Z,5.63
2018-03-31T23:13:58.257Z,5.97
2018-03-31T23:17:00.368Z,5.60
2018-03-31T23:20:02.509Z,4.50
2018-03-31T23:23:04.607Z,5.60
2018-03-31T23:26:06.752Z,7.00
2018-03-31T23:29:08.863Z,6.20
2018-03-31T23:32:10.964Z,5.50
2018-03-31T23:35:13.108Z,6.43
2018-03-31T23:38:15.210Z,6.30
2018-03-31T23:41:17.334Z,5.53
2018-03-31T23:44:19.437Z,6.07
2018-03-31T23:47:21.561Z,5.30
2018-03-31T23:50:23.695Z,6.37
2018-03-31T23:53:25.801Z,6.10
2018-03-31T23:56:27.948Z,5.83
2018-03-31T23:59:30.091Z,5.17
